FW8536 Weather Reports


Display with metric or nautical units.
time (UTC)temp
F
wind
direction
speed
MPH
gust
MPH
rain 1hr
in
rain 24hr
in
rain mn
in
humidity
%
barometer
mb
20220706064545 65 265 5.0 8.0 0.00 0.26 0.00 92 999.8
20220706064046 65 278 5.0 8.0 0.00 0.26 0.00 92 999.8
20220706063544 65 290 6.0 7.0 0.00 0.26 0.00 91 999.8
20220706063045 66 223 5.0 8.0 0.00 0.26 0.00 91 999.8
20220706062043 66 219 6.0 8.0 0.00 0.26 0.00 91 999.7
20220706061552 66 240 6.0 8.0 0.00 0.26 0.00 91 999.8
20220706061044 66 228 6.0 8.0 0.00 0.26 0.00 92 999.6
20220706060541 66 234 6.0 9.0 0.00 0.26 0.00 92 999.6
20220706060040 66 227 7.0 9.0 0.01 0.26 0.00 92 999.6
20220706055542 66 230 6.0 9.0 0.01 0.26 0.26 92 999.8
20220706055040 66 240 6.0 10.0 0.01 0.26 0.26 92 999.6
20220706054540 66 219 6.0 9.0 0.01 0.26 0.26 92 999.6
20220706054041 66 210 6.0 9.0 0.01 0.26 0.26 92 999.4
20220706053541 66 199 7.0 10.0 0.01 0.26 0.26 92 999.4
20220706053039 67 184 7.0 11.0 0.01 0.26 0.26 92 999.3
20220706052039 67 179 7.0 10.0 0.03 0.26 0.26 92 999.2
20220706051544 67 154 7.0 10.0 0.05 0.26 0.26 92 999.2
20220706051038 67 171 7.0 10.0 0.06 0.26 0.26 91 999.2
20220706050539 67 155 6.0 11.0 0.07 0.26 0.26 91 999.1
20220706050038 68 144 7.0 11.0 0.08 0.25 0.25 91 999.1
20220706045538 68 157 7.0 11.0 0.09 0.25 0.25 91 998.9
20220706045038 68 101 7.0 15.0 0.10 0.25 0.25 90 998.7
20220706044538 68 105 8.0 15.0 0.11 0.25 0.25 88 998.5
20220706044038 69 110 11.0 16.0 0.11 0.25 0.25 87 998.5
20220706043538 69 111 12.0 19.0 0.12 0.25 0.25 88 998.5
20220706043039 68 111 13.0 18.0 0.12 0.25 0.25 88 998.4
20220706042038 68 92 9.0 11.0 0.11 0.24 0.24 91 999.3
20220706041538 69 250 1.0 6.0 0.10 0.22 0.22 90 1000.7
20220706041038 69 250 4.0 6.0 0.09 0.21 0.21 89 1000.9
20220706040537 69 260 4.0 7.0 0.07 0.19 0.19 88 1001.0
20220706040037 69 261 5.0 7.0 0.06 0.18 0.18 88 1001.1
20220706035537 69 266 5.0 7.0 0.04 0.16 0.16 87 1001.1
20220706035041 70 256 5.0 7.0 0.04 0.16 0.16 85 1000.8
20220706034538 71 31 1.0 4.0 0.03 0.15 0.15 83 1000.6
20220706034038 71 31 0.0 1.0 0.02 0.14 0.14 83 1000.5
20220706033538 71 32 0.0 5.0 0.01 0.13 0.13 82 1000.3
20220706033037 71 31 4.0 6.0 0.01 0.13 0.13 81 1000.2
20220706032036 71 31 4.0 6.0 0.01 0.13 0.13 81 999.9
20220706031539 71 30 4.0 6.0 0.01 0.13 0.13 81 1000.0
20220706031035 72 21 4.0 6.0 0.00 0.12 0.12 81 999.9
20220706030539 72 355 4.0 6.0 0.00 0.12 0.12 80 1000.0
20220706030036 72 345 5.0 6.0 0.00 0.12 0.12 79 1000.0
20220706025536 73 355 4.0 6.0 0.00 0.12 0.12 78 1000.0
20220706025036 73 355 4.0 5.0 0.00 0.12 0.12 78 1000.0
20220706024536 73 360 4.0 5.0 0.00 0.12 0.12 78 1000.0
20220706024035 73 360 3.0 5.0 0.00 0.12 0.12 78 1000.0
20220706023535 73 360 2.0 5.0 0.00 0.12 0.12 77 1000.0
20220706023035 74 9 4.0 5.0 0.00 0.12 0.12 77 999.8
20220706022035 74 20 4.0 5.0 0.00 0.12 0.12 76 999.5
20220706021535 74 22 2.0 5.0 0.00 0.12 0.12 77 999.6
20220706021033 74 22 4.0 5.0 0.00 0.12 0.12 76 999.6
20220706020535 75 30 3.0 5.0 0.00 0.12 0.12 75 999.4
20220706020035 75 32 3.0 5.0 0.00 0.12 0.12 74 999.4
20220706015536 76 79 3.0 5.0 0.00 0.12 0.12 73 999.4
20220706015035 76 88 0.0 0.0 0.00 0.12 0.12 72 999.0
20220706014533 76 88 0.0 0.0 0.00 0.12 0.12 71 999.0
20220706014033 76 88 0.0 0.0 0.00 0.12 0.12 72 998.8
20220706013534 76 88 0.0 2.0 0.00 0.12 0.12 70 998.6
20220706013034 76 88 2.0 6.0 0.00 0.12 0.12 68 998.6
20220706012038 77 88 4.0 6.0 0.00 0.12 0.12 68 998.4
20220706011538 77 91 3.0 5.0 0.00 0.12 0.12 70 998.4
20220706011034 78 91 3.0 6.0 0.00 0.12 0.12 67 998.3
20220706010537 78 90 2.0 6.0 0.00 0.12 0.12 68 998.1
20220706010036 78 79 3.0 6.0 0.00 0.12 0.12 64 998.0
20220706005536 78 46 0.0 5.0 0.00 0.12 0.12 62 998.1
20220706005033 78 46 2.0 7.0 0.00 0.12 0.12 62 997.9
20220706004535 79 46 3.0 7.0 0.00 0.12 0.12 62 997.9
20220706004033 79 47 3.0 6.0 0.00 0.12 0.12 63 997.9
20220706003533 80 79 3.0 6.0 0.00 0.12 0.12 62 997.9
20220706003033 80 344 1.0 5.0 0.00 0.12 0.12 61 997.9
20220706002032 80 320 0.0 5.0 0.00 0.12 0.12 58 998.1
20220706001533 80 320 2.0 5.0 0.00 0.12 0.12 57 998.2
20220706001034 80 317 4.0 6.0 0.00 0.12 0.12 63 998.3
20220706000532 81 314 3.0 6.0 0.00 0.12 0.12 61 998.4
20220706000031 81 252 0.0 5.0 0.00 0.12 0.12 61 998.5
20220705235530 81 252 2.0 6.0 0.00 0.12 0.12 55 998.5
20220705235034 81 266 3.0 6.0 0.00 0.12 0.12 57 998.5
20220705234529 81 322 0.0 7.0 0.00 0.12 0.12 57 998.6
20220705234031 81 321 4.0 7.0 0.00 0.12 0.12 60 998.6
20220705233532 80 325 2.0 5.0 0.00 0.12 0.12 62 998.4
20220705233028 81 355 4.0 7.0 0.00 0.12 0.12 58 998.4
20220705232028 81 330 0.0 7.0 0.00 0.12 0.12 58 998.1
20220705231527 81 340 4.0 7.0 0.00 0.12 0.12 60 998.2
20220705231027 81 334 4.0 7.0 0.00 0.12 0.12 58 998.3
20220705230527 80 355 3.0 5.0 0.00 0.12 0.12 60 998.1
20220705230026 79 355 2.0 6.0 0.00 0.12 0.12 64 998.2
20220705225526 79 350 4.0 6.0 0.00 0.12 0.12 62 998.4
20220705225026 79 322 3.0 6.0 0.00 0.12 0.12 60 998.4
20220705224526 80 319 4.0 6.0 0.00 0.12 0.12 62 998.4
20220705224029 80 360 2.0 5.0 0.00 0.12 0.12 64 998.4
20220705223527 80 325 1.0 7.0 0.00 0.12 0.12 59 998.4
20220705223029 79 283 4.0 9.0 0.00 0.12 0.12 60 998.4
20220705222026 79 350 5.0 9.0 0.00 0.12 0.12 61 998.5
20220705221532 80 336 3.0 9.0 0.00 0.12 0.12 60 998.4
20220705221028 80 360 6.0 9.0 0.00 0.12 0.12 59 998.5
20220705220527 80 355 5.0 9.0 0.00 0.12 0.12 61 998.5
20220705220028 79 298 2.0 6.0 0.00 0.12 0.12 62 998.7
20220705215526 80 298 2.0 6.0 0.00 0.12 0.12 60 998.7
20220705215025 80 225 2.0 6.0 0.00 0.12 0.12 58 998.6
20220705214526 81 178 1.0 7.0 0.00 0.12 0.12 59 998.8
20220705214026 81 11 2.0 7.0 0.00 0.12 0.12 60 998.7
20220705213523 81 355 3.0 8.0 0.00 0.12 0.12 63 998.7
20220705213023 79 306 1.0 6.0 0.00 0.12 0.12 62 998.7
20220705212021 79 294 1.0 8.0 0.00 0.12 0.12 59 999.0
20220705211525 79 317 6.0 8.0 0.00 0.12 0.12 62 998.8
20220705211019 79 325 3.0 8.0 0.00 0.12 0.12 62 998.9
20220705210519 79 268 4.0 7.0 0.00 0.12 0.12 63 999.0
20220705210021 79 308 4.0 7.0 0.00 0.12 0.12 63 998.9
20220705205522 79 257 4.0 7.0 0.00 0.12 0.12 64 999.0
20220705205022 78 261 3.0 9.0 0.00 0.12 0.12 62 999.0
20220705204519 79 347 5.0 9.0 0.00 0.12 0.12 62 998.8
20220705204020 79 291 3.0 6.0 0.00 0.12 0.12 60 998.8
20220705203517 79 317 4.0 8.0 0.00 0.12 0.12 63 998.8
20220705203116 78 327 1.0 8.0 0.00 0.12 0.12 62 998.8
20220705202015 79 292 3.0 8.0 0.00 0.12 0.12 63 998.9
20220705201523 78 257 5.0 10.0 0.00 0.12 0.12 64 999.1
20220705201015 78 289 5.0 9.0 0.00 0.12 0.12 67 999.1
20220705200515 78 308 2.0 8.0 0.00 0.12 0.12 64 999.2
20220705200022 78 284 4.0 9.0 0.00 0.12 0.12 64 999.2
20220705195513 77 306 1.0 8.0 0.00 0.12 0.12 65 999.4
20220705195013 77 264 6.0 8.0 0.00 0.12 0.12 65 999.4
20220705194513 77 333 3.0 9.0 0.00 0.12 0.12 65 999.5
20220705194016 77 326 4.0 9.0 0.00 0.12 0.12 63 999.5
20220705193512 77 252 2.0 8.0 0.00 0.12 0.12 71 999.6
20220705193112 77 235 4.0 8.0 0.00 0.12 0.12 66 999.5
20220705192012 76 294 3.0 8.0 0.00 0.12 0.12 67 999.6
20220705191512 76 284 3.0 9.0 0.00 0.12 0.12 66 999.7
20220705191011 76 319 6.0 9.0 0.00 0.12 0.12 65 999.7
20220705190514 76 323 2.0 7.0 0.00 0.12 0.12 64 999.7
20220705190011 77 166 3.0 9.0 0.00 0.12 0.12 63 999.9
20220705185510 77 246 4.0 8.0 0.00 0.13 0.12 67 999.9
20220705185009 76 136 3.0 6.0 0.00 0.13 0.12 64 999.9
20220705184509 75 285 1.0 6.0 0.00 0.13 0.12 66 999.9
20220705184009 74 286 1.0 8.0 0.00 0.13 0.12 63 1000.0
20220705183509 75 281 6.0 8.0 0.00 0.13 0.12 65 999.9
20220705183109 75 253 4.0 6.0 0.00 0.13 0.12 67 999.9
20220705182056 76 301 1.0 8.0 0.00 0.13 0.12 65 1000.1
20220705181556 76 312 4.0 9.0 0.00 0.13 0.12 66 1000.1
20220705181054 75 325 5.0 9.0 0.00 0.13 0.12 68 1000.1
20220705180554 75 262 6.0 9.0 0.00 0.13 0.12 65 999.9
20220705180053 75 273 2.0 10.0 0.00 0.13 0.12 68 1000.0
20220705175553 75 318 6.0 10.0 0.00 0.13 0.12 67 1000.1
20220705145523 65 239 4.0 6.0 0.00 0.13 0.12 86 998.0
20220705145023 64 239 3.0 7.0 0.00 0.13 0.12 89 997.8
20220705144522 64 262 4.0 7.0 0.00 0.13 0.12 91 997.8
20220705144022 64 296 4.0 6.0 0.00 0.13 0.12 91 997.4
20220705143522 63 309 4.0 6.0 0.00 0.13 0.12 91 997.3
20220705143022 63 319 3.0 6.0 0.02 0.13 0.12 90 997.3
20220705142024 63 98 0.0 5.0 0.05 0.13 0.12 87 997.3
20220705141527 62 98 1.0 8.0 0.06 0.13 0.12 88 997.3
20220705141025 62 108 3.0 11.0 0.07 0.13 0.12 90 997.2
20220705140520 62 105 4.0 14.0 0.07 0.13 0.12 90 997.4
20220705140029 62 143 8.0 21.0 0.08 0.13 0.12 92 997.8
20220705135520 62 87 11.0 23.0 0.09 0.13 0.12 93 996.8
20220705135020 62 94 16.0 27.0 0.09 0.13 0.12 93 996.1
20220705134529 62 144 19.0 27.0 0.10 0.13 0.12 93 996.8
20220705134017 61 116 17.0 24.0 0.10 0.13 0.12 92 997.4
20220705133515 62 115 17.0 24.0 0.10 0.13 0.12 91 997.3
20220705133015 62 122 10.0 15.0 0.09 0.12 0.11 91 999.3
20220705132015 62 189 10.0 20.0 0.07 0.10 0.09 91 1001.2
20220705131513 62 213 12.0 21.0 0.06 0.08 0.07 91 1001.7
20220705131013 63 208 15.0 21.0 0.05 0.07 0.06 90 1001.8
20220705130512 63 216 17.0 21.0 0.04 0.06 0.05 90 1001.8
20220705130009 63 224 14.0 20.0 0.03 0.05 0.04 91 1001.8
20220705125509 63 213 12.0 20.0 0.03 0.05 0.04 91 1001.7
20220705125008 63 222 12.0 20.0 0.02 0.04 0.03 92 1001.8
20220705124507 63 216 13.0 20.0 0.01 0.03 0.02 93 1001.7
20220705124005 63 207 10.0 15.0 0.01 0.03 0.02 94 1001.9
20220705123505 63 167 8.0 12.0 0.01 0.03 0.02 94 1001.7
20220705123004 64 170 7.0 10.0 0.01 0.03 0.02 93 1001.6
20220705122006 64 224 8.0 12.0 0.01 0.03 0.02 92 1001.6
20220705121502 64 196 4.0 11.0 0.00 0.02 0.01 92 1001.2
20220705121004 64 240 7.0 11.0 0.00 0.02 0.01 92 1001.3
20220705120602 64 247 8.0 14.0 0.00 0.02 0.01 92 1001.2
20220705120134 64 265 10.0 15.0 0.00 0.02 0.01 93 1000.9
20220705115600 63 292 9.0 15.0 0.00 0.03 0.01 94 1000.7
20220705115059 63 283 10.0 12.0 0.00 0.03 0.01 94 1000.4
20220705114558 63 273 8.0 11.0 0.00 0.03 0.01 94 999.8
20220705114057 63 287 7.0 13.0 0.00 0.03 0.01 94 999.5
20220705113556 63 288 9.0 13.0 0.00 0.03 0.01 94 999.4
20220705113056 63 277 6.0 8.0 0.00 0.03 0.01 94 999.1
20220705112056 62 290 7.0 9.0 0.00 0.03 0.01 94 998.9
20220705111555 62 310 6.0 8.0 0.00 0.03 0.01 94 998.2
20220705111056 62 314 6.0 9.0 0.00 0.03 0.01 94 998.0
20220705110554 62 322 6.0 8.0 0.00 0.03 0.01 94 998.1
20220705110056 63 307 5.0 7.0 0.00 0.03 0.01 93 998.4
20220705105554 63 334 4.0 6.0 0.00 0.03 0.01 93 998.3
20220705105056 63 161 0.0 0.0 0.00 0.03 0.01 94 998.0
20220705104554 63 161 0.0 2.0 0.00 0.03 0.01 94 997.8
20220705104053 63 161 0.0 4.0 0.00 0.03 0.01 93 997.8
20220705103552 63 161 1.0 3.0 0.00 0.03 0.01 94 998.0
20220705103102 63 159 1.0 4.0 0.00 0.03 0.01 94 997.9
20220705102052 63 159 2.0 5.0 0.00 0.03 0.01 94 997.9
20220705101551 63 154 3.0 5.0 0.00 0.03 0.01 94 998.0
20220705101051 63 153 0.0 5.0 0.00 0.03 0.01 94 998.0
20220705100551 63 153 0.0 7.0 0.00 0.03 0.01 93 998.2
20220705100052 63 152 4.0 7.0 0.00 0.03 0.01 93 998.3
20220705095549 63 84 1.0 3.0 0.00 0.03 0.01 94 998.4
20220705095048 63 82 1.0 5.0 0.00 0.03 0.01 94 998.5
20220705094557 63 81 1.0 4.0 0.00 0.03 0.01 94 998.5
20220705094047 63 80 0.0 4.0 0.00 0.03 0.01 93 998.8
20220705093548 63 80 2.0 5.0 0.00 0.03 0.01 93 999.0
20220705093050 63 80 1.0 6.0 0.00 0.03 0.01 93 999.4
20220705092046 63 49 4.0 5.0 0.00 0.03 0.01 92 999.3
20220705091551 64 28 3.0 6.0 0.01 0.03 0.01 92 999.0
20220705091048 64 27 3.0 6.0 0.01 0.03 0.01 92 998.8
20220705090545 64 333 2.0 5.0 0.01 0.03 0.01 91 998.9
20220705090047 64 256 1.0 5.0 0.01 0.03 0.01 91 998.8
20220705085543 65 256 3.0 5.0 0.01 0.03 0.01 89 998.9
20220705085043 65 254 3.0 5.0 0.01 0.03 0.01 88 998.8
20220705084542 65 274 1.0 7.0 0.01 0.03 0.01 88 999.3
20220705084042 65 276 5.0 11.0 0.01 0.03 0.01 89 999.7
20220705083541 65 272 7.0 11.0 0.01 0.03 0.01 89 999.6
20220705083043 65 288 8.0 13.0 0.01 0.03 0.01 90 999.7
20220705082041 64 268 8.0 11.0 0.01 0.03 0.01 90 1000.1
20220705081541 65 263 6.0 10.0 0.00 0.02 0.00 89 999.9
20220705081040 64 263 7.0 10.0 0.00 0.02 0.00 90 999.9
20220705080540 64 253 4.0 7.0 0.00 0.02 0.00 90 1000.0
20220705080047 64 355 2.0 5.0 0.00 0.02 0.00 90 999.5
20220705075539 64 300 2.0 8.0 0.00 0.02 0.00 90 999.3
20220705075039 64 300 5.0 8.0 0.00 0.02 0.00 90 998.7
20220705074547 64 306 6.0 8.0 0.00 0.02 0.00 90 998.7
20220705074037 65 305 6.0 7.0 0.00 0.02 0.00 89 998.7
20220705073537 65 302 4.0 6.0 0.00 0.02 0.00 88 998.8
20220705073038 65 313 5.0 7.0 0.00 0.02 0.00 88 998.7
20220705072039 66 317 5.0 7.0 0.00 0.02 0.00 86 998.5
20220705071543 66 306 5.0 7.0 0.00 0.02 0.00 86 998.6
20220705071034 67 309 5.0 7.0 0.00 0.02 0.00 86 998.6
20220705070533 67 302 5.0 8.0 0.00 0.02 0.00 86 998.8
20220705070032 67 296 6.0 9.0 0.00 0.02 0.00 86 999.0
20220705065531 67 285 7.0 9.0 0.00 0.02 0.00 86 999.2
20220705065034 67 283 8.0 9.0 0.00 0.02 0.00 85 999.4